Time;durP1;ratioP1;P1;durP2;ratioP2;P2;SDS_P1;SDS_P2;PMS_P1;PMS_P2;Temp;Humidity;BMP_temperature;BMP_pressure;BME280_temperature;BME280_humidity;BME280_pressure;Samples;Min_cycle;Max_cycle;Signal;HPM_P1;HPM_P2
2021/04/05 00:01:29;;;;;;;26.87;19.80;;;;;;;4.18;76.92;100594.03;1774933;79;20942;-77
2021/04/05 00:03:58;;;;;;;28.62;20.20;;;;;;;4.19;76.82;100597.47;1774932;80;21365;-75
2021/04/05 00:06:27;;;;;;;24.30;19.95;;;;;;;4.17;76.50;100592.78;1774979;79;21002;-75
2021/04/05 00:08:57;;;;;;;32.23;23.10;;;;;;;4.14;76.54;100591.14;1774975;79;20990;-75
2021/04/05 00:11:24;;;;;;;39.00;23.55;;;;;;;4.13;76.87;100594.16;1774845;80;20947;-74
2021/04/05 00:13:53;;;;;;;34.80;24.07;;;;;;;4.15;77.07;100597.55;1774989;80;21349;-75
2021/04/05 00:16:21;;;;;;;39.83;26.52;;;;;;;4.14;77.08;100593.27;1774867;80;21349;-76
2021/04/05 00:18:51;;;;;;;39.88;25.92;;;;;;;4.10;77.11;100590.38;1774933;80;20934;-76
2021/04/05 00:21:21;;;;;;;28.98;21.57;;;;;;;4.09;77.06;100586.11;1774914;80;22021;-75
2021/04/05 00:23:53;;;;;;;23.27;19.40;;;;;;;4.06;76.30;100589.24;1774908;80;20966;-76
2021/04/05 00:26:23;;;;;;;31.55;21.55;;;;;;;4.01;75.64;100581.61;1774889;80;21097;-75
2021/04/05 00:28:53;;;;;;;27.10;20.23;;;;;;;3.93;75.34;100574.52;1774745;79;21026;-75
2021/04/05 00:31:21;;;;;;;29.45;20.43;;;;;;;3.89;74.94;100569.03;1775002;80;21369;-75
2021/04/05 00:33:50;;;;;;;29.77;21.65;;;;;;;3.85;74.42;100567.47;1774877;80;21370;-73
2021/04/05 00:36:18;;;;;;;37.73;22.60;;;;;;;3.77;74.07;100562.52;1774858;80;21440;-76
2021/04/05 00:38:46;;;;;;;51.35;27.80;;;;;;;3.68;73.82;100569.30;1774922;79;20919;-75
2021/04/05 00:41:15;;;;;;;68.30;29.35;;;;;;;3.55;73.83;100566.25;1774918;79;21006;-74
2021/04/05 00:43:46;;;;;;;70.83;27.82;;;;;;;3.46;73.78;100558.77;1774906;80;21053;-76
2021/04/05 00:46:20;;;;;;;67.30;29.50;;;;;;;3.37;73.80;100552.58;1775002;79;21157;-77
2021/04/05 00:48:48;;;;;;;86.35;32.93;;;;;;;;;;1774590;80;21479;-76
2021/04/05 00:51:23;;;;;;;85.22;33.58;;;;;;;3.21;74.12;100556.09;1774917;80;20986;-76
2021/04/05 00:53:52;;;;;;;73.87;31.80;;;;;;;3.17;74.33;100549.30;1775129;80;21344;-75
2021/04/05 00:56:22;;;;;;;74.37;30.17;;;;;;;3.15;74.44;100548.05;1753238;80;20919;-76
2021/04/05 00:58:51;;;;;;;54.08;26.62;;;;;;;3.13;74.33;100552.42;1774944;80;21190;-75
2021/04/05 01:01:26;;;;;;;53.20;27.05;;;;;;;3.08;74.40;100554.31;1774855;80;20915;-74
2021/04/05 01:03:55;;;;;;;91.97;34.48;;;;;;;3.04;74.24;100561.32;1775076;80;20971;-75
2021/04/05 01:06:31;;;;;;;167.87;55.92;;;;;;;2.97;73.97;100557.68;1774845;80;21045;-75
2021/04/05 01:09:00;;;;;;;51.70;28.47;;;;;;;2.88;74.05;100563.52;1774894;80;20925;-77
2021/04/05 01:11:29;;;;;;;48.35;28.92;;;;;;;2.79;74.66;100562.50;1774937;79;22129;-75
2021/04/05 01:13:58;;;;;;;39.88;26.52;;;;;;;2.73;75.03;100564.41;1774831;80;20990;-76
2021/04/05 01:16:29;;;;;;;41.42;29.92;;;;;;;2.66;75.47;100563.28;1774758;79;21042;-76
2021/04/05 01:18:59;;;;;;;50.90;30.00;;;;;;;2.61;75.88;100565.62;1774789;80;20978;-75
2021/04/05 01:21:27;;;;;;;52.45;28.73;;;;;;;2.58;76.06;100562.67;1774775;80;21014;-74
2021/04/05 01:23:55;;;;;;;42.50;26.60;;;;;;;2.58;75.92;100568.27;1774843;80;21713;-75
2021/04/05 01:26:24;;;;;;;45.28;25.75;;;;;;;2.57;75.75;100566.59;1774757;79;21045;-75
2021/04/05 01:28:52;;;;;;;37.93;26.37;;;;;;;2.53;75.58;100564.97;1774976;80;21345;-76
2021/04/05 01:31:21;;;;;;;36.05;25.43;;;;;;;2.48;75.47;100561.22;1774800;79;20931;-76
2021/04/05 01:33:51;;;;;;;31.65;24.47;;;;;;;2.44;75.48;100562.19;1774859;80;20931;-78
2021/04/05 01:36:19;;;;;;;42.58;27.55;;;;;;;2.39;75.59;100556.30;1775051;79;22257;-76
2021/04/05 01:38:50;;;;;;;43.17;29.52;;;;;;;2.34;75.63;100555.58;1775072;80;21563;-76
2021/04/05 01:41:28;;;;;;;42.23;27.58;;;;;;;2.31;75.43;100560.37;1774980;80;20938;-76
2021/04/05 01:43:56;;;;;;;42.23;28.12;;;;;;;2.26;75.29;100551.89;1775066;80;20958;-75
2021/04/05 01:46:28;;;;;;;43.10;27.37;;;;;;;2.23;75.51;100549.40;1775081;80;21535;-76
2021/04/05 01:49:00;;;;;;;38.08;25.92;;;;;;;2.18;75.70;100543.05;1775021;80;21359;-76
2021/04/05 01:51:29;;;;;;;40.20;27.02;;;;;;;2.18;75.76;100548.65;1775057;80;21480;-76
2021/04/05 01:53:57;;;;;;;48.98;31.80;;;;;;;2.17;75.65;100556.02;1774975;80;21014;-76
2021/04/05 01:56:25;;;;;;;49.42;31.12;;;;;;;2.15;75.43;100553.92;1774980;79;21128;-76
2021/04/05 01:58:54;;;;;;;56.75;34.95;;;;;;;2.11;75.31;100554.88;1774964;80;21029;-76
2021/04/05 02:01:29;;;;;;;61.00;35.50;;;;;;;2.10;75.53;100557.92;1775001;80;21377;-76
2021/04/05 02:03:57;;;;;;;47.80;29.95;;;;;;;2.08;75.73;100556.66;1775226;80;20970;-76
2021/04/05 02:06:32;;;;;;;60.48;33.90;;;;;;;2.03;75.78;100554.64;1775145;80;21357;-75
2021/04/05 02:09:05;;;;;;;65.50;35.10;;;;;;;1.98;76.47;100551.34;1775056;79;21018;-75
2021/04/05 02:11:36;;;;;;;67.27;37.15;;;;;;;1.96;76.38;100550.98;1775095;80;20923;-76
2021/04/05 02:14:08;;;;;;;66.57;38.48;;;;;;;1.95;76.25;100550.10;1774906;80;21420;-76
2021/04/05 02:16:36;;;;;;;82.22;42.95;;;;;;;1.92;75.92;100548.90;1775062;80;20998;-75
2021/04/05 02:19:05;;;;;;;61.02;36.25;;;;;;;1.87;76.04;100553.34;1775022;80;20968;-75
2021/04/05 02:21:34;;;;;;;53.25;31.97;;;;;;;1.86;75.96;100547.75;1774985;80;21288;-76
2021/04/05 02:24:05;;;;;;;56.53;32.55;;;;;;;1.83;75.96;100550.43;1775021;79;20923;-76
2021/04/05 02:26:35;;;;;;;53.30;30.15;;;;;;;1.82;76.19;100557.34;1774912;80;21323;-76
2021/04/05 02:29:05;;;;;;;54.58;31.23;;;;;;;1.81;76.24;100553.49;1775001;79;20955;-76
2021/04/05 02:31:36;;;;;;;48.23;30.97;;;;;;;1.78;76.02;100547.96;1775061;79;21516;-76
2021/04/05 02:34:06;;;;;;;55.75;33.90;;;;;;;1.76;76.07;100550.19;1775023;79;20950;-77
2021/04/05 02:36:39;;;;;;;55.63;34.25;;;;;;;1.75;76.03;100556.22;1775185;80;20991;-77
2021/04/05 02:39:07;;;;;;;47.48;35.63;;;;;;;1.75;76.05;100549.31;1775636;80;21360;-77
2021/04/05 02:41:39;;;;;;;55.17;36.30;;;;;;;1.75;76.54;100553.64;1777797;78;21121;-76
2021/04/05 02:44:08;;;;;;;59.00;36.23;;;;;;;1.76;77.78;100553.61;1778113;78;20994;-76
2021/04/05 02:46:37;;;;;;;56.30;33.73;;;;;;;1.80;78.33;100558.24;1777537;78;21427;-76
2021/04/05 02:49:12;;;;;;;53.78;33.55;;;;;;;1.79;77.48;100556.11;1756311;78;20939;-76
2021/04/05 02:51:46;;;;;;;54.80;33.90;;;;;;;1.73;76.82;100555.41;1778814;79;21348;-77
2021/04/05 02:54:20;;;;;;;56.65;33.65;;;;;;;1.68;76.93;100555.53;1775203;79;20931;-78
2021/04/05 02:56:49;;;;;;;59.10;33.75;;;;;;;1.66;76.77;100551.67;1776206;80;21318;-74
2021/04/05 02:59:20;;;;;;;52.15;31.30;;;;;;;1.71;76.74;100555.89;1788839;79;21005;-75
2021/04/05 03:01:49;;;;;;;47.05;30.35;;;;;;;1.72;76.54;100555.86;1790709;80;20926;-75
2021/04/05 03:04:18;;;;;;;53.60;35.25;;;;;;;1.69;76.54;100552.07;1790634;79;22474;-75
2021/04/05 03:06:49;;;;;;;55.95;33.20;;;;;;;1.67;77.50;100553.84;1790136;79;21045;-77
2021/04/05 03:09:18;;;;;;;56.70;33.42;;;;;;;1.63;77.48;100558.22;1789242;80;21566;-76
2021/04/05 03:11:49;;;;;;;62.38;34.88;;;;;;;1.59;77.61;100555.30;1760933;80;21033;-77
2021/04/05 03:14:17;;;;;;;54.38;29.98;;;;;;;1.60;77.64;100554.44;1736823;80;20902;-75
2021/04/05 03:16:47;;;;;;;48.68;30.23;;;;;;;1.65;77.24;100553.03;1788748;79;21187;-77
2021/04/05 03:19:16;;;;;;;48.73;30.37;;;;;;;1.66;77.06;100551.67;1760905;80;20994;-75
2021/04/05 03:21:44;;;;;;;45.20;29.65;;;;;;;1.65;77.02;100547.41;1760681;80;21065;-75
2021/04/05 03:24:13;;;;;;;44.42;28.15;;;;;;;1.64;77.07;100541.81;1760581;80;21383;-76
2021/04/05 03:26:41;;;;;;;44.53;27.37;;;;;;;1.63;77.30;100540.58;1788841;80;20942;-74
2021/04/05 03:29:12;;;;;;;44.73;27.40;;;;;;;1.62;77.55;100542.74;1788773;80;22192;-74
2021/04/05 03:31:40;;;;;;;39.42;23.77;;;;;;;1.61;77.56;100544.94;1788662;80;20953;-75
2021/04/05 03:34:16;;;;;;;36.28;23.77;;;;;;;1.60;77.79;100544.09;1788685;79;21041;-75
2021/04/05 03:36:55;;;;;;;32.15;21.07;;;;;;;1.60;78.16;100545.39;1788650;80;21052;-74
2021/04/05 03:39:23;;;;;;;33.83;21.85;;;;;;;1.62;78.56;100546.63;1788571;80;21455;-75
2021/04/05 03:42:09;;;;;;;42.43;25.40;;;;;;;1.62;78.78;100546.63;1788680;80;21377;-75
2021/04/05 03:45:01;;;;;;;41.85;24.30;;;;;;;1.64;78.78;100549.56;1788729;80;21486;-74
2021/04/05 03:47:42;;;;;;;41.25;22.40;;;;;;;1.62;78.81;100551.38;1788380;80;21032;-76
2021/04/05 03:50:17;;;;;;;50.95;25.00;;;;;;;1.64;78.72;100546.14;1788815;80;21526;-75
2021/04/05 03:53:13;;;;;;;36.60;20.90;;;;;;;1.68;78.80;100544.34;1788895;80;21033;-75
2021/04/05 03:55:41;;;;;;;29.18;18.87;;;;;;;1.73;78.94;100541.20;1789039;80;21368;-75
2021/04/05 03:58:10;;;;;;;29.32;18.70;;;;;;;1.78;79.14;100537.63;1785677;80;20974;-74
2021/04/05 04:00:39;;;;;;;33.40;19.00;;;;;;;1.85;79.11;100533.14;1776220;80;21010;-75
2021/04/05 04:03:09;;;;;;;33.58;20.05;;;;;;;1.94;79.01;100539.37;1776361;80;20994;-76
2021/04/05 04:05:47;;;;;;;37.05;21.95;;;;;;;2.04;78.82;100549.02;1775805;80;21096;-75
2021/04/05 04:08:19;;;;;;;31.42;20.57;;;;;;;2.15;78.53;100550.04;1753342;80;21382;-75
2021/04/05 04:10:48;;;;;;;41.83;24.40;;;;;;;2.26;78.33;100547.56;1775671;80;21041;-79
2021/04/05 04:13:18;;;;;;;40.75;22.35;;;;;;;2.39;78.18;100549.37;1775497;80;21456;-76
2021/04/05 04:15:49;;;;;;;36.25;19.70;;;;;;;2.48;78.11;100550.41;1775161;80;21591;-76
2021/04/05 04:18:18;;;;;;;29.37;18.23;;;;;;;2.60;77.96;100549.66;1775402;80;20935;-78
2021/04/05 04:20:47;;;;;;;41.28;19.75;;;;;;;2.74;77.79;100554.47;1774934;80;21370;-77
2021/04/05 04:23:15;;;;;;;27.98;17.37;;;;;;;2.86;77.63;100554.94;1774837;80;21065;-76
2021/04/05 04:25:44;;;;;;;34.13;18.40;;;;;;;3.00;77.39;100549.80;1774966;80;20927;-76
2021/04/05 04:28:16;;;;;;;25.20;15.10;;;;;;;3.12;77.05;100546.86;1774885;80;20959;-77
2021/04/05 04:30:45;;;;;;;27.98;17.35;;;;;;;3.19;76.88;100545.77;1775042;80;21472;-80
2021/04/05 04:33:13;;;;;;;37.35;15.93;;;;;;;3.25;76.73;100552.06;1774846;80;21385;-78
2021/04/05 04:35:45;;;;;;;33.80;15.15;;;;;;;3.31;76.63;100548.00;1774843;80;20955;-77
2021/04/05 04:38:13;;;;;;;37.00;16.93;;;;;;;3.37;76.50;100549.53;1778534;80;21002;-78
2021/04/05 04:40:45;;;;;;;28.52;16.50;;;;;;;3.43;76.38;100548.51;1774824;80;21002;-78
2021/04/05 04:43:14;;;;;;;31.73;16.57;;;;;;;3.46;76.23;100553.13;1774943;80;21396;-77
2021/04/05 04:45:42;;;;;;;33.67;17.92;;;;;;;3.48;75.99;100551.33;1774830;80;22030;-78
2021/04/05 04:48:11;;;;;;;21.95;15.15;;;;;;;3.48;76.19;100556.97;1774906;80;21028;-78
2021/04/05 04:50:39;;;;;;;26.62;15.85;;;;;;;3.44;76.06;100548.89;1774803;80;20939;-77
2021/04/05 04:53:07;;;;;;;35.60;18.27;;;;;;;3.40;76.06;100544.69;1774806;80;21052;-76
2021/04/05 04:55:38;;;;;;;33.42;19.50;;;;;;;3.45;76.21;100553.20;1774862;80;20939;-77
2021/04/05 04:58:07;;;;;;;40.15;20.82;;;;;;;3.53;76.15;100549.47;1774733;80;22392;-81
2021/04/05 05:00:35;;;;;;;35.60;19.27;;;;;;;3.63;76.02;100547.87;1774790;79;20962;-72
2021/04/05 05:03:05;;;;;;;41.10;22.60;;;;;;;3.69;75.91;100546.34;1774776;80;20958;-73
2021/04/05 05:05:34;;;;;;;34.50;20.52;;;;;;;3.72;75.98;100547.11;1774842;79;20935;-77
2021/04/05 05:08:04;;;;;;;26.77;19.67;;;;;;;3.77;75.82;100537.88;1774851;79;20950;-76
2021/04/05 05:10:32;;;;;;;26.82;18.30;;;;;;;3.82;76.05;100545.05;1753666;80;21202;-74
2021/04/05 05:12:59;;;;;;;32.73;20.23;;;;;;;3.84;75.95;100543.25;1774713;80;21389;-73
2021/04/05 05:15:28;;;;;;;40.00;22.58;;;;;;;3.83;75.86;100539.44;1729042;80;21380;-72
2021/04/05 05:17:56;;;;;;;42.78;21.85;;;;;;;3.79;75.85;100539.13;1774766;80;20955;-72
2021/04/05 05:20:26;;;;;;;47.23;22.65;;;;;;;3.80;76.06;100540.39;1753386;80;21045;-72
2021/04/05 05:22:59;;;;;;;52.58;23.87;;;;;;;3.81;75.82;100530.85;1775030;80;21366;-74
2021/04/05 05:25:27;;;;;;;37.85;24.60;;;;;;;3.85;75.77;100533.75;1774971;80;21022;-73
2021/04/05 05:28:04;;;;;;;37.65;24.47;;;;;;;3.93;75.60;100529.13;1754555;80;21564;-74
2021/04/05 05:30:32;;;;;;;31.20;22.10;;;;;;;4.00;75.55;100533.20;1775476;79;21380;-74
2021/04/05 05:33:04;;;;;;;30.05;18.85;;;;;;;4.04;75.50;100532.20;1775563;80;21471;-72
2021/04/05 05:35:34;;;;;;;31.93;20.82;;;;;;;4.07;75.64;100524.33;1778333;78;21353;-75
2021/04/05 05:38:06;;;;;;;27.98;19.42;;;;;;;4.08;75.91;100527.30;1778721;79;20935;-74
2021/04/05 05:40:35;;;;;;;30.68;20.43;;;;;;;4.09;75.68;100537.23;1778694;80;21333;-76
2021/04/05 05:43:12;;;;;;;36.68;22.15;;;;;;;4.05;75.67;100530.02;1778207;80;21063;-75
2021/04/05 05:46:14;;;;;;;35.83;21.33;;;;;;;4.03;75.82;100529.22;1778849;80;21468;-75
2021/04/05 05:49:02;;;;;;;38.45;22.98;;;;;;;4.10;75.87;100527.27;1775274;80;21484;-74
2021/04/05 05:52:00;;;;;;;33.92;24.85;;;;;;;4.19;75.56;100526.09;1774088;80;21381;-75
2021/04/05 05:55:04;;;;;;;33.10;22.48;;;;;;;4.38;75.03;100523.25;1845890;76;22726;-74
2021/04/05 05:58:28;;;;;;;31.07;21.33;;;;;;;4.39;74.97;100531.42;1817759;79;20935;-74
2021/04/05 06:01:26;;;;;;;32.85;22.67;;;;;;;4.51;74.90;100525.80;1818019;77;21081;-77
2021/04/05 06:04:16;;;;;;;39.33;24.37;;;;;;;4.67;74.72;100525.20;1817935;79;20939;-75
2021/04/05 06:07:04;;;;;;;35.33;23.52;;;;;;;4.81;74.43;100531.21;1817963;78;20895;-72
2021/04/05 06:10:15;;;;;;;39.33;25.52;;;;;;;4.87;74.34;100521.86;1818040;77;21625;-74
2021/04/05 06:12:58;;;;;;;42.75;24.67;;;;;;;4.92;74.22;100522.09;1818086;77;20927;-76
2021/04/05 06:15:29;;;;;;;38.90;26.12;;;;;;;4.97;73.94;100519.32;1818004;79;21808;-75
2021/04/05 06:18:25;;;;;;;34.80;23.52;;;;;;;4.98;73.66;100514.08;1817901;79;20936;-75
2021/04/05 06:21:25;;;;;;;34.73;24.40;;;;;;;5.01;73.44;100513.56;1818099;79;20934;-75
2021/04/05 06:23:54;;;;;;;37.83;25.57;;;;;;;4.97;73.55;100507.63;1817961;79;20926;-74
2021/04/05 06:26:30;;;;;;;41.77;26.73;;;;;;;4.94;74.02;100508.59;1818035;79;20974;-75
2021/04/05 06:29:22;;;;;;;43.65;29.37;;;;;;;4.99;74.16;100501.92;1792779;79;22512;-74
2021/04/05 06:32:24;;;;;;;44.60;29.10;;;;;;;5.11;74.13;100510.98;1817934;77;20966;-74
2021/04/05 06:35:29;;;;;;;45.03;27.65;;;;;;;5.25;73.73;100504.80;1817925;79;21456;-75
2021/04/05 06:38:04;;;;;;;44.23;29.40;;;;;;;5.40;73.39;100505.92;1818152;77;21037;-75
2021/04/05 06:40:32;;;;;;;41.83;29.10;;;;;;;5.48;73.06;100506.92;1818344;78;20931;-75
2021/04/05 06:43:35;;;;;;;48.40;29.02;;;;;;;5.49;72.64;100510.78;1817933;78;21225;-76
2021/04/05 06:46:23;;;;;;;38.60;27.17;;;;;;;5.53;72.64;100513.62;1817869;79;20938;-76
2021/04/05 06:49:34;;;;;;;46.68;31.20;;;;;;;5.59;72.87;100513.84;1817710;78;21043;-76
2021/04/05 06:52:24;;;;;;;61.85;40.63;;;;;;;5.66;72.90;100521.77;1814011;79;20907;-76
2021/04/05 06:55:14;;;;;;;64.40;41.80;;;;;;;5.76;73.08;100516.59;1832211;78;21550;-75
2021/04/05 06:58:23;;;;;;;68.45;42.95;;;;;;;5.83;72.96;100513.73;1804578;77;22766;-74
2021/04/05 07:01:34;;;;;;;78.72;46.02;;;;;;;5.86;72.70;100516.20;1833001;78;21023;-74
2021/04/05 07:04:27;;;;;;;71.50;42.53;;;;;;;5.86;72.17;100514.44;1833784;77;20931;-74
2021/04/05 07:07:10;;;;;;;67.53;41.45;;;;;;;5.84;72.42;100516.25;1832686;78;20921;-75
2021/04/05 07:10:15;;;;;;;63.98;40.05;;;;;;;5.88;72.78;100516.52;1832379;78;20966;-75
2021/04/05 07:13:04;;;;;;;67.53;40.17;;;;;;;5.93;72.97;100511.12;1832495;78;21329;-76
2021/04/05 07:16:13;;;;;;;71.77;42.03;;;;;;;6.04;72.54;100512.84;1832036;77;20993;-76
2021/04/05 07:19:19;;;;;;;70.45;41.42;;;;;;;6.09;72.12;100509.60;1832554;78;21431;-80
2021/04/05 07:22:08;;;;;;;71.47;42.35;;;;;;;6.11;72.00;100503.01;1766230;80;21493;-79
2021/04/05 07:25:11;;;;;;;69.62;40.85;;;;;;;6.16;71.96;100506.28;1766241;81;20952;-78
2021/04/05 07:28:21;;;;;;;61.85;40.40;;;;;;;6.29;71.98;100499.62;1766529;80;21338;-76
2021/04/05 07:31:35;;;;;;;65.95;41.08;;;;;;;6.49;71.62;100497.43;1766193;81;21043;-77
2021/04/05 07:34:21;;;;;;;69.27;41.65;;;;;;;6.70;70.84;100490.38;1766247;80;20969;-77
2021/04/05 07:37:49;;;;;;;68.30;43.33;;;;;;;6.80;71.01;100489.48;1890057;76;23097;-77
2021/04/05 07:40:38;;;;;;;64.30;41.10;;;;;;;6.83;70.63;100481.08;1861068;77;20914;-77
2021/04/05 07:43:33;;;;;;;63.33;40.43;;;;;;;7.02;70.37;100475.83;1861069;77;21799;-76
2021/04/05 07:46:20;;;;;;;75.45;42.80;;;;;;;7.21;70.12;100472.36;1861147;77;20986;-77
2021/04/05 07:49:13;;;;;;;72.53;43.17;;;;;;;7.38;69.42;100468.48;1861005;77;20918;-75
2021/04/05 07:51:52;;;;;;;63.78;39.18;;;;;;;7.52;68.17;100471.70;1860903;77;20998;-77
2021/04/05 07:54:23;;;;;;;64.90;39.90;;;;;;;7.70;67.92;100467.80;1860983;77;20946;-75
2021/04/05 07:57:14;;;;;;;62.25;40.63;;;;;;;7.95;67.46;100458.23;1861007;77;21305;-79
2021/04/05 08:00:29;;;;;;;62.27;42.20;;;;;;;8.21;67.15;100456.41;1860089;77;21013;-76
2021/04/05 08:03:05;;;;;;;70.55;43.78;;;;;;;8.50;65.48;100447.05;1861030;77;20941;-77
2021/04/05 08:05:51;;;;;;;67.37;42.50;;;;;;;8.82;65.15;100446.20;1860962;77;20879;-77
2021/04/05 08:08:48;;;;;;;64.03;43.28;;;;;;;9.00;64.25;100448.25;1860765;77;20997;-77
2021/04/05 08:11:36;;;;;;;66.53;44.27;;;;;;;9.31;63.93;100439.50;1860860;77;20954;-78
2021/04/05 08:14:46;;;;;;;69.20;44.67;;;;;;;9.75;62.62;100435.59;1860944;77;20934;-78
2021/04/05 08:17:55;;;;;;;64.90;44.53;;;;;;;10.31;61.14;100441.45;1861186;77;21003;-80
2021/04/05 08:20:37;;;;;;;70.12;45.90;;;;;;;10.92;59.24;100431.51;1860871;77;20938;-75
2021/04/05 08:23:38;;;;;;;67.55;47.43;;;;;;;11.53;57.54;100438.44;1860953;77;20922;-74
2021/04/05 08:26:43;;;;;;;74.72;50.17;;;;;;;12.01;57.15;100432.15;1860996;77;22112;-72
2021/04/05 08:30:10;;;;;;;74.10;52.83;;;;;;;12.59;55.34;100427.22;1860870;77;21434;-73
2021/04/05 08:33:06;;;;;;;81.30;53.33;;;;;;;13.05;52.62;100430.47;1861075;77;28546;-72
2021/04/05 08:35:45;;;;;;;80.87;53.92;;;;;;;13.83;51.50;100415.88;1860742;77;21072;-73
2021/04/05 08:38:34;;;;;;;77.37;55.35;;;;;;;13.83;51.50;100415.88;1860911;77;21035;-72
2021/04/05 08:41:20;;;;;;;82.27;56.80;;;;;;;14.16;50.58;100409.78;1861071;77;22104;-70
2021/04/05 08:44:14;;;;;;;82.50;58.65;;;;;;;14.48;49.62;100403.26;1860821;77;20962;-71
2021/04/05 08:46:43;;;;;;;89.10;63.08;;;;;;;14.79;49.66;100398.67;1860905;77;21361;-71
2021/04/05 08:49:19;;;;;;;87.25;60.40;;;;;;;15.10;48.21;100395.68;1860137;77;20966;-72
2021/04/05 08:51:55;;;;;;;81.70;61.83;;;;;;;15.23;48.30;100389.73;1860132;77;21013;-71
2021/04/05 08:54:26;;;;;;;96.08;63.87;;;;;;;15.41;48.14;100388.67;1860346;77;21396;-71
2021/04/05 08:57:03;;;;;;;97.50;65.60;;;;;;;15.58;47.55;100390.37;1860211;77;20942;-71
2021/04/05 08:59:57;;;;;;;96.50;66.65;;;;;;;15.61;46.43;100383.52;1860309;77;20954;-71
2021/04/05 09:02:41;;;;;;;104.30;70.72;;;;;;;15.63;46.89;100383.73;1860347;77;21037;-71
2021/04/05 09:05:19;;;;;;;93.35;63.05;;;;;;;15.78;46.25;100375.48;1860481;77;21030;-73
2021/04/05 09:08:08;;;;;;;99.87;67.92;;;;;;;15.80;45.90;100378.84;1860257;77;21383;-72
2021/04/05 09:10:53;;;;;;;104.87;70.85;;;;;;;15.67;45.96;100373.27;1860167;77;20962;-71
2021/04/05 09:14:12;;;;;;;92.88;63.13;;;;;;;15.44;45.80;100372.55;1816090;79;22444;-71
2021/04/05 09:17:18;;;;;;;94.42;64.40;;;;;;;15.07;45.52;100369.05;1789204;80;21132;-72
2021/04/05 09:20:19;;;;;;;106.55;63.80;;;;;;;14.68;46.24;100370.51;1751894;81;21570;-72
2021/04/05 09:22:56;;;;;;;96.67;63.95;;;;;;;14.18;46.78;100365.64;1752077;81;20970;-73
2021/04/05 09:25:53;;;;;;;96.60;62.75;;;;;;;13.65;48.00;100366.26;1751953;81;21065;-71
2021/04/05 09:29:04;;;;;;;92.92;61.40;;;;;;;13.25;49.37;100358.73;1890066;76;22638;-72
2021/04/05 09:32:20;;;;;;;92.33;60.60;;;;;;;12.95;49.84;100357.06;1861028;77;21534;-72
2021/04/05 09:35:26;;;;;;;91.82;59.20;;;;;;;12.67;50.63;100351.19;1823155;78;21356;-72
2021/04/05 09:38:28;;;;;;;84.87;60.12;;;;;;;12.38;51.22;100347.59;1776467;80;21405;-71
2021/04/05 09:41:53;;;;;;;101.10;62.60;;;;;;;12.17;51.48;100340.75;1805555;79;20946;-72
2021/04/05 09:44:50;;;;;;;93.47;63.20;;;;;;;12.01;52.36;100341.48;1780501;80;21022;-72
2021/04/05 09:47:55;;;;;;;89.72;60.83;;;;;;;11.92;52.93;100327.20;1780522;80;20926;-71
2021/04/05 09:50:50;;;;;;;90.65;56.37;;;;;;;11.87;52.67;100328.42;1780629;80;21370;-72
2021/04/05 09:54:01;;;;;;;74.03;47.33;;;;;;;11.85;52.59;100327.69;1780408;79;20942;-72
2021/04/05 09:56:32;;;;;;;39.03;29.02;;;;;;;11.89;52.58;100318.67;1780475;80;20915;-72
2021/04/05 09:59:09;;;;;;;46.20;35.10;;;;;;;11.96;52.07;100311.59;1780442;80;20946;-73
2021/04/05 10:01:39;;;;;;;44.70;32.93;;;;;;;12.01;51.37;100312.09;1780571;80;21381;-73
2021/04/05 10:04:11;;;;;;;56.73;42.80;;;;;;;12.08;50.68;100310.34;1752873;80;21294;-74
2021/04/05 10:06:39;;;;;;;64.62;44.40;;;;;;;12.06;51.56;100309.13;1780353;80;20950;-71
2021/04/05 10:09:08;;;;;;;60.95;44.73;;;;;;;12.02;52.40;100303.72;1780428;80;21471;-73
2021/04/05 10:11:42;;;;;;;58.00;43.00;;;;;;;12.01;52.52;100301.58;1780524;80;21084;-74
2021/04/05 10:14:18;;;;;;;30.32;24.35;;;;;;;12.10;53.18;100296.62;1780455;80;21018;-75
2021/04/05 10:16:52;;;;;;;32.33;22.75;;;;;;;12.12;51.50;100294.73;1780471;80;21439;-73
2021/04/05 10:19:24;;;;;;;28.90;23.30;;;;;;;12.08;50.06;100296.72;1780347;80;22748;-71
2021/04/05 10:22:01;;;;;;;46.58;31.57;;;;;;;11.97;50.16;100290.91;1780536;80;21019;-71
2021/04/05 10:24:31;;;;;;;50.30;33.40;;;;;;;11.90;51.42;100288.84;1780093;80;20946;-73
2021/04/05 10:27:05;;;;;;;44.35;31.40;;;;;;;11.81;51.71;100287.19;1779893;80;20935;-72
2021/04/05 10:29:34;;;;;;;45.25;33.67;;;;;;;11.76;51.82;100282.74;1778616;80;21199;-72
2021/04/05 10:32:05;;;;;;;49.35;32.17;;;;;;;11.73;51.78;100276.86;1778505;79;20994;-73
2021/04/05 10:34:37;;;;;;;45.70;32.20;;;;;;;11.69;51.88;100278.02;1778593;80;20927;-70
2021/04/05 10:37:11;;;;;;;52.17;33.00;;;;;;;11.57;51.72;100271.36;1778529;79;20955;-75
2021/04/05 10:39:48;;;;;;;44.15;32.08;;;;;;;11.47;51.84;100260.28;1778002;80;20939;-72
2021/04/05 10:42:33;;;;;;;48.00;31.75;;;;;;;11.38;52.27;100269.19;1777965;80;21325;-76
2021/04/05 10:45:08;;;;;;;40.23;30.60;;;;;;;11.31;52.65;100263.97;1778028;79;21030;-81
2021/04/05 10:47:57;;;;;;;47.35;30.62;;;;;;;11.26;52.82;100251.64;1778030;79;21547;-72
2021/04/05 10:50:27;;;;;;;40.92;28.17;;;;;;;11.20;52.58;100241.11;1778007;80;21511;-71
2021/04/05 10:53:12;;;;;;;38.33;27.15;;;;;;;11.11;52.94;100243.50;1778021;80;21326;-73
2021/04/05 10:55:47;;;;;;;35.55;25.68;;;;;;;10.99;53.08;100244.70;1778065;80;21360;-71
2021/04/05 10:58:17;;;;;;;39.73;26.60;;;;;;;10.87;52.69;100236.37;1777979;80;21116;-73
2021/04/05 11:00:50;;;;;;;38.08;26.70;;;;;;;10.75;52.95;100240.63;1777957;80;21025;-74
2021/04/05 11:03:21;;;;;;;45.00;26.97;;;;;;;10.67;53.07;100239.02;1777858;79;20919;-71
2021/04/05 11:05:55;;;;;;;40.75;27.93;;;;;;;10.60;53.56;100236.89;1754615;80;20939;-73
2021/04/05 11:08:32;;;;;;;;;;;;;;;10.53;53.62;100232.04;1780569;79;21283;-74
2021/04/05 11:11:14;;;;;;;38.02;25.60;;;;;;;10.45;54.72;100226.92;1777991;79;20135;-73
2021/04/05 11:13:52;;;;;;;36.55;24.47;;;;;;;10.31;54.75;100226.05;1778598;80;21424;-73
2021/04/05 11:16:21;;;;;;;32.03;22.42;;;;;;;10.18;54.80;100226.45;1778204;80;20927;-74
2021/04/05 11:18:53;;;;;;;31.10;22.87;;;;;;;10.06;54.88;100218.92;1777979;79;20938;-74
2021/04/05 11:21:24;;;;;;;32.78;24.63;;;;;;;9.93;54.43;100221.47;1778041;80;22299;-73
2021/04/05 11:23:56;;;;;;;30.97;21.45;;;;;;;9.83;55.36;100222.19;1778024;80;21591;-75
2021/04/05 11:26:33;;;;;;;39.83;22.35;;;;;;;9.73;55.27;100224.52;1777860;80;20979;-78
2021/04/05 11:29:00;;;;;;;;;;;;;;;9.64;55.82;100222.48;1782144;80;21595;-74
2021/04/05 11:31:35;;;;;;;28.45;19.70;;;;;;;9.54;55.78;100208.66;1780032;80;20151;-74
2021/04/05 11:34:04;;;;;;;26.57;19.85;;;;;;;9.50;55.98;100206.33;1730807;80;21808;-74
2021/04/05 11:36:39;;;;;;;27.42;21.42;;;;;;;9.52;56.76;100210.53;1779898;80;20946;-74
2021/04/05 11:39:11;;;;;;;28.85;20.43;;;;;;;9.50;57.19;100212.41;1779901;80;20939;-75
2021/04/05 11:41:39;;;;;;;25.75;19.70;;;;;;;9.46;57.13;100201.75;1779810;80;20879;-73
2021/04/05 11:44:08;;;;;;;25.97;18.05;;;;;;;9.44;56.56;100202.30;1779933;80;20926;-71
2021/04/05 11:46:38;;;;;;;23.50;17.07;;;;;;;9.43;56.61;100206.34;1779803;79;21366;-74
2021/04/05 11:49:12;;;;;;;21.87;16.35;;;;;;;9.37;56.45;100204.94;1779741;79;21026;-74
2021/04/05 11:51:53;;;;;;;26.82;18.17;;;;;;;9.36;56.45;100199.34;1779941;80;20943;-73
2021/04/05 11:54:39;;;;;;;20.35;16.00;;;;;;;9.38;57.13;100205.77;1779817;80;21650;-74
2021/04/05 11:57:10;;;;;;;20.95;15.63;;;;;;;9.38;57.02;100201.84;1779854;80;21381;-72
2021/04/05 11:59:48;;;;;;;22.50;16.95;;;;;;;9.36;57.01;100200.66;1779987;80;21445;-72
2021/04/05 12:02:29;;;;;;;19.82;16.67;;;;;;;9.32;57.27;100198.68;1779765;79;20943;-72
2021/04/05 12:05:08;;;;;;;23.27;16.97;;;;;;;9.27;56.97;100198.12;1780024;79;21432;-73
2021/04/05 12:07:40;;;;;;;27.22;20.75;;;;;;;9.19;58.99;100197.75;1777200;79;20907;-73
2021/04/05 12:10:18;;;;;;;28.90;19.50;;;;;;;9.11;60.44;100196.92;1779898;80;21025;-74